Time;durP1;ratioP1;P1;durP2;ratioP2;P2;SDS_P1;SDS_P2;PMS_P1;PMS_P2;Temp;Humidity;BMP_temperature;BMP_pressure;BME280_temperature;BME280_humidity;BME280_pressure;Samples;Min_cycle;Max_cycle;Signal;HPM_P1;HPM_P2
2022/01/11 00:00:22;;;;;;;65.75;22.63;;;;;;;5.15;100.00;102899.22;5092892;28;20044;-54
2022/01/11 00:02:49;;;;;;;72.20;23.05;;;;;;;5.18;100.00;102898.19;5093909;28;20028;-51
2022/01/11 00:05:23;;;;;;;93.07;24.58;;;;;;;5.15;100.00;102895.75;5094261;28;20051;-53
2022/01/11 00:07:51;;;;;;;76.55;22.23;;;;;;;5.33;100.00;102893.56;5094377;28;20066;-53
2022/01/11 00:10:38;;;;;;;88.57;22.73;;;;;;;5.21;100.00;102895.31;5092589;28;20444;-51
2022/01/11 00:13:03;;;;;;;115.32;25.70;;;;;;;5.42;100.00;102897.38;5094731;28;20047;-52
2022/01/11 00:15:30;;;;;;;71.43;23.40;;;;;;;5.34;100.00;102905.06;5094071;28;20062;-55
2022/01/11 00:17:59;;;;;;;86.35;24.80;;;;;;;5.63;100.00;102910.88;5093962;28;20032;-54
2022/01/11 00:20:27;;;;;;;74.53;22.90;;;;;;;5.82;100.00;102899.78;5093591;28;20396;-55
2022/01/11 00:25:25;;;;;;;88.88;27.73;;;;;;;5.39;100.00;102900.25;5093660;28;20510;-53
2022/01/11 00:27:50;;;;;;;75.93;22.40;;;;;;;5.43;100.00;102905.25;5093788;28;20553;-52
2022/01/11 00:30:16;;;;;;;66.63;22.03;;;;;;;5.48;100.00;102904.88;5092411;28;20067;-54
2022/01/11 00:32:47;;;;;;;87.93;24.67;;;;;;;5.52;100.00;102897.56;5088410;28;20090;-55
2022/01/11 00:35:16;;;;;;;98.03;23.98;;;;;;;5.31;100.00;102900.81;5094020;28;20130;-55
2022/01/11 00:37:41;;;;;;;103.28;26.65;;;;;;;5.18;100.00;102903.47;5092401;28;20036;-52
2022/01/11 00:40:08;;;;;;;84.60;24.38;;;;;;;5.42;100.00;102908.84;5092445;28;20173;-52
2022/01/11 00:42:34;;;;;;;105.25;23.83;;;;;;;5.34;100.00;102908.53;5092409;28;20531;-53
2022/01/11 00:45:04;;;;;;;83.55;22.80;;;;;;;5.33;100.00;102908.66;5092741;28;20027;-54
2022/01/11 00:47:30;;;;;;;88.43;24.02;;;;;;;5.23;100.00;102908.47;5092858;28;20055;-51
2022/01/11 00:49:55;;;;;;;92.57;24.90;;;;;;;5.16;100.00;102900.91;5093597;28;20388;-54
2022/01/11 00:52:21;;;;;;;117.05;25.23;;;;;;;5.08;100.00;102902.44;5091974;28;20067;-54
2022/01/11 00:54:47;;;;;;;125.68;25.10;;;;;;;5.01;100.00;102894.91;5093562;28;20043;-54
2022/01/11 00:57:12;;;;;;;97.63;22.73;;;;;;;5.01;100.00;102899.38;5093856;28;20040;-55
2022/01/11 00:59:38;;;;;;;59.60;20.30;;;;;;;5.08;100.00;102899.78;5095538;28;20039;-53
2022/01/11 01:02:04;;;;;;;91.93;22.50;;;;;;;4.73;100.00;102896.84;5096972;28;20368;-52
2022/01/11 01:04:29;;;;;;;58.92;19.33;;;;;;;4.55;100.00;102904.25;5097482;28;20280;-55
2022/01/11 01:06:56;;;;;;;78.63;23.25;;;;;;;4.65;100.00;102899.16;5096188;28;20135;-54
2022/01/11 01:09:23;;;;;;;65.13;21.50;;;;;;;5.05;100.00;102906.16;5079684;28;20038;-54
2022/01/11 01:11:49;;;;;;;70.88;22.10;;;;;;;4.77;100.00;102913.38;5097091;28;20044;-52
2022/01/11 01:14:17;;;;;;;77.43;22.35;;;;;;;4.87;100.00;102919.72;5079714;28;20059;-53
2022/01/11 01:16:43;;;;;;;77.35;26.13;;;;;;;5.26;100.00;102921.50;5096176;28;20048;-54
2022/01/11 01:19:19;;;;;;;134.43;27.08;;;;;;;5.03;100.00;102914.19;5097842;28;20043;-55
2022/01/11 01:21:47;;;;;;;74.03;21.83;;;;;;;4.96;100.00;102918.25;5096759;28;20051;-53
2022/01/11 01:24:14;;;;;;;72.28;22.98;;;;;;;4.84;100.00;102927.03;5080310;28;20244;-55
2022/01/11 01:26:39;;;;;;;97.85;23.95;;;;;;;4.84;100.00;102919.09;5079739;28;20047;-55
2022/01/11 01:29:05;;;;;;;115.93;24.17;;;;;;;4.74;100.00;102909.13;5095768;28;20043;-56
2022/01/11 01:31:31;;;;;;;84.10;22.40;;;;;;;4.63;100.00;102916.13;5095579;28;20511;-54
2022/01/11 01:33:58;;;;;;;76.05;23.17;;;;;;;4.67;100.00;102917.59;5096880;28;20036;-53
2022/01/11 01:36:23;;;;;;;61.03;20.05;;;;;;;4.56;100.00;102908.59;5097439;28;20032;-55
2022/01/11 01:38:50;;;;;;;87.45;23.75;;;;;;;4.74;100.00;102909.13;5095781;28;20098;-53
2022/01/11 01:41:16;;;;;;;;;;;;;;;4.67;100.00;102907.00;5097482;28;20036;-51
2022/01/11 01:43:44;;;;;;;72.38;21.70;;;;;;;4.71;100.00;102904.03;5095999;28;19914;-54
2022/01/11 01:46:09;;;;;;;133.40;28.05;;;;;;;4.69;100.00;102903.31;5096494;28;20449;-52
2022/01/11 01:48:36;;;;;;;85.80;22.27;;;;;;;4.78;100.00;102908.91;5096295;28;20064;-53
2022/01/11 01:51:03;;;;;;;68.38;23.77;;;;;;;4.48;100.00;102924.16;5078755;28;20051;-53
2022/01/11 01:53:28;;;;;;;72.20;24.08;;;;;;;4.49;100.00;102909.13;5097081;28;20044;-54
2022/01/11 01:55:54;;;;;;;86.32;23.40;;;;;;;4.73;100.00;102909.25;5095394;28;20113;-52
2022/01/11 01:58:20;;;;;;;125.72;26.63;;;;;;;4.78;100.00;102909.78;5079470;28;20044;-54
2022/01/11 02:00:51;;;;;;;82.05;22.15;;;;;;;4.66;100.00;102913.25;5095192;28;20480;-52
2022/01/11 02:03:19;;;;;;;76.00;25.10;;;;;;;4.71;100.00;102913.78;5095999;28;20041;-55
2022/01/11 02:05:44;;;;;;;67.28;21.83;;;;;;;4.13;100.00;102909.66;5096832;28;20035;-54
2022/01/11 02:08:12;;;;;;;75.10;21.23;;;;;;;4.36;100.00;102923.16;5096586;28;20399;-53
2022/01/11 02:10:38;;;;;;;69.68;19.35;;;;;;;4.62;100.00;102933.84;5094888;28;20552;-55
2022/01/11 02:13:05;;;;;;;80.30;25.45;;;;;;;4.72;100.00;102934.91;5095883;28;20121;-55
2022/01/11 02:15:31;;;;;;;77.50;20.95;;;;;;;4.57;100.00;102939.44;5096528;28;20324;-53
2022/01/11 02:18:07;;;;;;;64.03;21.35;;;;;;;4.72;100.00;102942.84;5095095;28;20036;-55
2022/01/11 02:20:34;;;;;;;72.80;23.08;;;;;;;4.52;100.00;102951.31;5095617;28;20036;-53
2022/01/11 02:22:59;;;;;;;;;;;;;;;4.34;100.00;102943.63;5095336;28;20030;-51
2022/01/11 02:25:26;;;;;;;74.13;22.38;;;;;;;4.32;100.00;102945.53;5096024;28;19912;-53
2022/01/11 02:27:51;;;;;;;74.93;23.73;;;;;;;4.42;100.00;102943.97;5096065;28;20043;-55
2022/01/11 02:30:17;;;;;;;64.35;23.23;;;;;;;4.72;100.00;102953.44;5094938;28;20492;-53
2022/01/11 02:32:52;;;;;;;56.30;20.50;;;;;;;4.87;100.00;102948.91;5077758;28;20048;-55
2022/01/11 02:35:21;;;;;;;66.43;22.55;;;;;;;4.72;100.00;102958.75;5095556;28;20083;-54
2022/01/11 02:37:46;;;;;;;58.23;19.20;;;;;;;4.62;100.00;102955.03;5095515;28;20376;-51
2022/01/11 02:40:14;;;;;;;66.80;22.98;;;;;;;4.54;100.00;102958.22;5078090;28;20308;-53
2022/01/11 02:42:41;;;;;;;61.92;22.77;;;;;;;4.74;100.00;102967.44;5095225;28;20384;-52
2022/01/11 02:45:19;;;;;;;76.60;22.88;;;;;;;4.72;100.00;102969.34;5094794;28;20053;-55
2022/01/11 02:47:47;;;;;;;66.30;20.38;;;;;;;4.88;100.00;102955.06;5094574;28;20109;-53
2022/01/11 02:50:16;;;;;;;59.05;21.92;;;;;;;4.53;100.00;102961.81;5078347;28;20429;-54
2022/01/11 02:52:45;;;;;;;67.82;21.77;;;;;;;4.80;100.00;102973.28;5095584;28;20030;-55
2022/01/11 02:55:15;;;;;;;66.13;23.38;;;;;;;4.77;100.00;102969.06;5095423;28;20044;-53
2022/01/11 02:57:43;;;;;;;57.72;20.40;;;;;;;4.65;100.00;102985.78;5078291;28;20127;-52
2022/01/11 03:00:20;;;;;;;56.05;18.40;;;;;;;4.98;100.00;102977.34;5094687;28;20036;-55
2022/01/11 03:02:47;;;;;;;55.38;19.42;;;;;;;4.61;100.00;102986.94;5094650;28;20436;-52
2022/01/11 03:05:16;;;;;;;60.65;18.05;;;;;;;4.44;100.00;102981.81;5094725;28;20364;-54
2022/01/11 03:07:43;;;;;;;63.83;21.02;;;;;;;4.53;100.00;102968.91;5077319;28;20033;-52
2022/01/11 03:10:23;;;;;;;67.47;23.52;;;;;;;4.74;100.00;102972.75;5093790;28;20040;-53
2022/01/11 03:12:51;;;;;;;67.47;21.15;;;;;;;4.44;100.00;102984.47;5095674;28;20035;-51
2022/01/11 03:15:17;;;;;;;59.88;19.55;;;;;;;4.55;100.00;102977.59;5093609;28;20491;-54
2022/01/11 03:17:46;;;;;;;63.65;21.77;;;;;;;4.50;100.00;102992.97;5094442;28;20070;-54
2022/01/11 03:20:12;;;;;;;61.35;21.27;;;;;;;4.26;100.00;102975.91;5095665;28;20059;-52
2022/01/11 03:22:40;;;;;;;74.75;22.27;;;;;;;4.41;100.00;102966.13;5094452;28;20036;-55
2022/01/11 03:25:08;;;;;;;64.32;21.33;;;;;;;4.72;100.00;102974.66;5061252;28;20036;-53
2022/01/11 03:27:36;;;;;;;67.55;22.02;;;;;;;4.50;100.00;102964.66;5094585;28;20044;-56
2022/01/11 03:30:03;;;;;;;76.25;23.10;;;;;;;4.71;100.00;102962.38;5094990;28;20044;-53
2022/01/11 03:32:30;;;;;;;61.15;21.38;;;;;;;4.56;100.00;102963.38;5093959;28;20400;-54
2022/01/11 03:34:55;;;;;;;64.90;19.85;;;;;;;4.57;100.00;102970.38;5094693;28;20040;-55
2022/01/11 03:37:21;;;;;;;66.80;20.63;;;;;;;4.57;100.00;102962.44;5094837;28;20135;-52
2022/01/11 03:39:48;;;;;;;62.13;20.95;;;;;;;4.46;100.00;102968.44;5093252;28;20135;-55
2022/01/11 03:42:15;;;;;;;66.22;23.98;;;;;;;4.56;100.00;102963.38;5093453;28;20071;-52
2022/01/11 03:44:40;;;;;;;66.88;21.30;;;;;;;4.78;100.00;102962.81;5094234;28;20067;-53
2022/01/11 03:47:06;;;;;;;63.85;21.30;;;;;;;4.51;100.00;102963.72;5093433;28;20075;-54
2022/01/11 03:49:32;;;;;;;74.35;22.20;;;;;;;4.44;100.00;102973.88;5093373;28;20036;-51
2022/01/11 03:51:58;;;;;;;68.22;23.55;;;;;;;4.52;100.00;102961.91;5077225;28;20484;-53
2022/01/11 03:54:27;;;;;;;66.13;23.15;;;;;;;4.46;100.00;102960.50;5093326;28;20032;-53
2022/01/11 03:57:04;;;;;;;69.40;21.02;;;;;;;4.40;100.00;102968.88;5093888;28;20063;-53
2022/01/11 03:59:36;;;;;;;55.20;21.67;;;;;;;4.54;100.00;102974.09;5077364;28;20499;-51
2022/01/11 04:02:02;;;;;;;67.50;21.10;;;;;;;4.85;100.00;102974.69;5094143;28;20048;-52
2022/01/11 04:04:27;;;;;;;61.83;20.20;;;;;;;4.72;100.00;102973.78;5060543;28;20276;-51
2022/01/11 04:06:53;;;;;;;70.87;23.13;;;;;;;4.98;100.00;102977.34;5094225;28;20456;-51
2022/01/11 04:09:20;;;;;;;68.83;22.77;;;;;;;4.48;100.00;102973.66;5094113;28;20269;-51
2022/01/11 04:11:46;;;;;;;68.13;23.02;;;;;;;4.37;100.00;102982.31;5092682;28;20032;-51
2022/01/11 04:14:11;;;;;;;65.43;22.55;;;;;;;4.47;100.00;102977.25;5076043;28;20040;-54
2022/01/11 04:16:37;;;;;;;73.57;22.73;;;;;;;4.95;100.00;102979.34;5094147;28;20043;-53
2022/01/11 04:19:04;;;;;;;72.68;22.67;;;;;;;4.94;100.00;102977.63;5092785;28;20051;-55
2022/01/11 04:21:31;;;;;;;73.82;20.85;;;;;;;5.05;100.00;102980.41;5092497;28;20040;-51
2022/01/11 04:23:58;;;;;;;71.53;23.33;;;;;;;4.64;100.00;102973.47;5092686;28;20048;-53
2022/01/11 04:26:25;;;;;;;83.40;24.25;;;;;;;4.47;100.00;102983.41;5093045;28;20051;-55
2022/01/11 04:28:51;;;;;;;73.53;24.37;;;;;;;4.55;100.00;102972.28;5093449;28;20158;-52
2022/01/11 04:31:17;;;;;;;73.37;22.43;;;;;;;4.64;100.00;102992.03;5093381;28;20795;-53
2022/01/11 04:33:43;;;;;;;63.67;20.37;;;;;;;4.54;100.00;102997.09;5093112;28;20479;-54
2022/01/11 04:36:11;;;;;;;68.50;22.48;;;;;;;4.56;100.00;102985.44;5092627;28;20768;-54
2022/01/11 04:38:39;;;;;;;68.95;23.13;;;;;;;4.54;100.00;102990.00;5076381;28;20051;-53
2022/01/11 04:41:04;;;;;;;;;;;;;;;4.55;100.00;102988.19;5076729;28;20065;-52
2022/01/11 04:43:36;;;;;;;73.40;23.23;;;;;;;4.40;100.00;102985.63;5093399;28;19912;-52
2022/01/11 04:46:01;;;;;;;63.72;21.92;;;;;;;4.57;100.00;102981.84;5091960;28;20071;-55
2022/01/11 04:48:29;;;;;;;76.78;22.20;;;;;;;4.41;100.00;102992.63;5075703;28;20172;-55
2022/01/11 04:50:55;;;;;;;72.15;21.60;;;;;;;4.50;100.00;102982.34;5093222;28;20033;-53
2022/01/11 04:53:21;;;;;;;57.70;21.55;;;;;;;4.49;100.00;102993.91;5093190;28;20139;-53
2022/01/11 04:55:47;;;;;;;65.38;22.35;;;;;;;4.45;100.00;102990.59;5076223;28;20150;-52
2022/01/11 04:58:12;;;;;;;71.30;24.57;;;;;;;4.35;100.00;102982.41;5092864;28;20044;-53
2022/01/11 05:00:38;;;;;;;73.20;25.02;;;;;;;4.34;100.00;102986.00;5076183;28;20036;-54
2022/01/11 05:03:04;;;;;;;70.57;23.38;;;;;;;4.29;100.00;102988.13;5094382;28;20437;-52
2022/01/11 05:05:30;;;;;;;67.88;23.40;;;;;;;4.25;100.00;102982.16;5076181;28;20476;-53
2022/01/11 05:07:56;;;;;;;72.70;24.98;;;;;;;4.34;100.00;102988.66;5092836;28;20066;-51
2022/01/11 05:10:23;;;;;;;60.30;20.27;;;;;;;4.29;100.00;102981.03;5094663;28;20059;-55
2022/01/11 05:12:49;;;;;;;67.68;23.55;;;;;;;4.62;100.00;102983.34;5093551;28;20464;-53
2022/01/11 05:15:17;;;;;;;80.80;24.55;;;;;;;4.88;100.00;102994.84;5102441;28;20047;-53
2022/01/11 05:17:44;;;;;;;75.95;25.38;;;;;;;4.82;100.00;102984.63;5081881;28;20067;-52
2022/01/11 05:20:10;;;;;;;70.20;23.73;;;;;;;4.45;100.00;102998.56;5097457;28;20033;-53
2022/01/11 05:22:36;;;;;;;77.78;25.50;;;;;;;4.49;100.00;102996.56;5095886;28;20460;-52
2022/01/11 05:25:03;;;;;;;73.30;25.20;;;;;;;4.64;100.00;102987.59;5093407;28;20039;-52
2022/01/11 05:27:30;;;;;;;75.78;24.50;;;;;;;4.66;100.00;102998.94;5079159;28;20063;-52
2022/01/11 05:29:56;;;;;;;75.72;23.73;;;;;;;4.59;100.00;103006.44;5097140;28;20130;-56
2022/01/11 05:32:22;;;;;;;77.43;25.42;;;;;;;4.84;100.00;102995.97;5102197;28;20045;-52
2022/01/11 05:34:48;;;;;;;67.32;23.98;;;;;;;4.67;100.00;103019.19;5104961;28;20108;-52
2022/01/11 05:37:14;;;;;;;70.63;26.67;;;;;;;4.89;100.00;103009.78;5098352;28;20044;-52
2022/01/11 05:39:40;;;;;;;91.35;32.58;;;;;;;4.35;100.00;102998.31;5097768;28;20028;-52
2022/01/11 05:42:07;;;;;;;78.27;24.87;;;;;;;4.78;100.00;103007.88;5096152;28;20361;-49
2022/01/11 05:44:36;;;;;;;73.20;24.52;;;;;;;4.86;100.00;103008.19;5093030;28;20281;-52
2022/01/11 05:47:04;;;;;;;73.07;25.42;;;;;;;5.01;100.00;103016.06;5097525;28;20048;-52
2022/01/11 05:49:30;;;;;;;72.57;22.92;;;;;;;4.85;100.00;103018.91;5096661;28;20119;-54
2022/01/11 05:51:56;;;;;;;73.43;23.90;;;;;;;5.01;100.00;103021.38;5095692;28;20515;-54
2022/01/11 05:54:21;;;;;;;64.35;23.80;;;;;;;5.14;100.00;103027.50;5062299;28;20097;-51
2022/01/11 05:56:50;;;;;;;73.95;24.58;;;;;;;4.74;100.00;103017.81;5095538;28;20032;-54
2022/01/11 05:59:16;;;;;;;73.22;25.42;;;;;;;4.85;100.00;103032.16;5095205;28;20047;-53
2022/01/11 06:01:41;;;;;;;72.75;24.65;;;;;;;4.66;100.00;103041.34;5095213;28;20032;-56
2022/01/11 06:04:07;;;;;;;72.23;24.97;;;;;;;4.86;100.00;103042.66;5096954;28;20498;-55
2022/01/11 06:06:33;;;;;;;74.47;24.05;;;;;;;4.86;100.00;103031.22;5078807;28;20048;-54
2022/01/11 06:09:02;;;;;;;75.50;25.05;;;;;;;4.77;100.00;103048.59;5095405;28;20115;-55
2022/01/11 06:11:28;;;;;;;74.75;25.13;;;;;;;4.84;100.00;103047.22;5095238;28;20082;-55
2022/01/11 06:13:54;;;;;;;68.80;22.30;;;;;;;5.09;100.00;103039.41;5078311;28;20071;-55
2022/01/11 06:16:21;;;;;;;68.82;23.35;;;;;;;5.07;100.00;103046.59;5096831;28;20031;-55
2022/01/11 06:18:48;;;;;;;69.90;23.83;;;;;;;5.17;100.00;103042.38;5095444;28;20071;-54
2022/01/11 06:21:20;;;;;;;66.78;24.58;;;;;;;4.76;100.00;103046.88;5095613;28;20040;-53
2022/01/11 06:23:46;;;;;;;76.73;25.73;;;;;;;4.90;100.00;103045.97;5095019;28;20460;-53
2022/01/11 06:26:14;;;;;;;77.22;24.48;;;;;;;4.69;100.00;103061.47;5095083;28;20280;-53
2022/01/11 06:28:40;;;;;;;76.63;25.63;;;;;;;4.57;100.00;103049.88;5096537;28;20059;-53
2022/01/11 06:31:07;;;;;;;76.40;25.50;;;;;;;4.64;100.00;103039.75;5094792;28;20038;-54
2022/01/11 06:33:35;;;;;;;70.32;24.83;;;;;;;4.67;100.00;103053.66;5094649;28;20052;-53
2022/01/11 06:36:01;;;;;;;74.88;24.80;;;;;;;4.63;100.00;103046.84;5094765;28;20223;-55
2022/01/11 06:38:26;;;;;;;60.92;22.40;;;;;;;4.47;100.00;103051.47;5094803;28;20059;-56
2022/01/11 06:40:53;;;;;;;68.28;23.95;;;;;;;4.76;100.00;103056.63;5095198;28;20040;-55
2022/01/11 06:43:19;;;;;;;72.05;22.58;;;;;;;4.79;100.00;103065.25;5095275;28;20040;-53
2022/01/11 06:45:45;;;;;;;73.93;23.25;;;;;;;4.90;100.00;103068.97;5095205;28;20036;-51
2022/01/11 06:48:14;;;;;;;66.10;21.90;;;;;;;4.65;100.00;103075.91;5077697;28;20044;-52
2022/01/11 06:50:40;;;;;;;73.68;26.27;;;;;;;4.73;100.00;103061.19;5078208;28;20040;-54
2022/01/11 06:53:06;;;;;;;69.90;23.08;;;;;;;4.61;100.00;103056.69;5095344;28;20113;-56
2022/01/11 06:55:36;;;;;;;75.03;25.98;;;;;;;4.52;100.00;103052.00;5094453;28;20036;-54
2022/01/11 06:58:01;;;;;;;63.38;21.77;;;;;;;4.44;100.00;103048.06;5094180;28;20036;-52
2022/01/11 07:00:27;;;;;;;69.55;22.90;;;;;;;4.30;100.00;103053.41;5077382;28;20094;-55
2022/01/11 07:03:00;;;;;;;81.93;26.98;;;;;;;4.32;100.00;103059.44;5079234;28;20028;-55
2022/01/11 07:05:45;;;;;;;73.95;25.33;;;;;;;4.34;100.00;103060.19;5080133;28;20048;-52
2022/01/11 07:08:12;;;;;;;74.07;24.58;;;;;;;4.42;100.00;103063.22;5094853;28;20036;-53
2022/01/11 07:10:38;;;;;;;75.70;25.83;;;;;;;4.40;100.00;103073.06;5094150;28;20040;-54
2022/01/11 07:13:04;;;;;;;71.57;25.52;;;;;;;4.52;100.00;103075.84;5093915;28;20035;-53
2022/01/11 07:15:31;;;;;;;68.22;24.15;;;;;;;4.24;100.00;103072.34;5093885;28;20036;-51
2022/01/11 07:17:57;;;;;;;74.70;25.58;;;;;;;4.62;100.00;103087.56;5093749;28;20536;-55
2022/01/11 07:20:23;;;;;;;79.97;25.77;;;;;;;4.39;100.00;103089.03;5077563;28;20487;-51
2022/01/11 07:22:50;;;;;;;65.35;23.40;;;;;;;4.49;100.00;103084.00;5093753;28;20052;-57
2022/01/11 07:25:15;;;;;;;62.97;21.73;;;;;;;4.29;100.00;103091.44;5077184;28;20506;-54
2022/01/11 07:27:42;;;;;;;68.70;22.92;;;;;;;4.64;100.00;103103.34;5094026;28;20044;-55
2022/01/11 07:30:09;;;;;;;71.10;23.45;;;;;;;4.74;100.00;103105.31;5093568;28;20051;-52
2022/01/11 07:32:41;;;;;;;66.70;25.25;;;;;;;4.66;100.00;103101.44;5077623;28;20059;-55
2022/01/11 07:35:08;;;;;;;67.95;24.67;;;;;;;4.60;100.00;103100.03;5077445;28;20047;-52
2022/01/11 07:37:34;;;;;;;72.05;26.83;;;;;;;4.32;100.00;103107.13;5093531;28;20044;-55
2022/01/11 07:40:02;;;;;;;65.90;25.10;;;;;;;4.44;100.00;103103.72;5093469;28;20040;-55
2022/01/11 07:42:30;;;;;;;70.05;23.08;;;;;;;4.51;100.00;103108.59;5093423;28;20059;-52
2022/01/11 07:45:02;;;;;;;67.30;23.75;;;;;;;4.35;100.00;103109.56;5078170;28;20403;-55
2022/01/11 07:47:30;;;;;;;69.88;24.40;;;;;;;4.41;100.00;103113.63;5093281;28;20041;-54
2022/01/11 07:49:56;;;;;;;69.43;25.08;;;;;;;4.48;100.00;103108.81;5076448;28;20042;-54
2022/01/11 07:52:21;;;;;;;63.42;23.83;;;;;;;4.22;100.00;103104.22;5093359;28;20039;-52
2022/01/11 07:54:47;;;;;;;64.22;22.00;;;;;;;4.45;100.00;103099.25;5093943;28;20189;-53
2022/01/11 07:57:16;;;;;;;57.53;21.60;;;;;;;4.50;100.00;103105.13;5093065;28;20048;-55
2022/01/11 07:59:41;;;;;;;66.83;23.50;;;;;;;4.54;100.00;103116.34;5094187;28;20031;-54
2022/01/11 08:02:08;;;;;;;63.67;22.70;;;;;;;4.70;100.00;103122.38;5093228;28;20261;-55
2022/01/11 08:04:34;;;;;;;63.63;22.60;;;;;;;4.82;100.00;103123.34;5092992;28;20415;-52
2022/01/11 08:07:03;;;;;;;60.97;21.80;;;;;;;4.71;100.00;103124.06;5093044;28;20036;-54
2022/01/11 08:09:39;;;;;;;58.42;21.85;;;;;;;4.71;100.00;103129.38;5093152;28;20791;-55
2022/01/11 08:12:05;;;;;;;58.80;20.75;;;;;;;4.84;100.00;103125.91;5095065;28;20105;-55
2022/01/11 08:14:30;;;;;;;62.58;19.33;;;;;;;4.52;100.00;103126.19;5094836;28;20128;-54
2022/01/11 08:16:57;;;;;;;60.65;21.15;;;;;;;4.65;100.00;103127.13;5076241;28;20071;-53
2022/01/11 08:19:25;;;;;;;;;;;;;;;4.47;100.00;103133.59;5093059;28;20044;-53
2022/01/11 08:21:55;;;;;;;45.03;18.13;;;;;;;4.82;100.00;103126.00;5094207;28;19908;-54
2022/01/11 08:24:24;;;;;;;50.78;19.77;;;;;;;4.45;100.00;103139.00;5093396;28;20043;-53
2022/01/11 08:26:53;;;;;;;48.28;18.27;;;;;;;4.72;100.00;103128.41;5092259;28;20082;-56
2022/01/11 08:29:21;;;;;;;49.65;19.52;;;;;;;4.84;100.00;103133.84;5076381;28;20040;-52
2022/01/11 08:31:50;;;;;;;51.15;20.23;;;;;;;4.72;100.00;103133.72;5092871;28;20110;-55
2022/01/11 08:34:17;;;;;;;53.42;19.48;;;;;;;4.80;100.00;103129.69;5094006;28;20036;-55
2022/01/11 08:36:48;;;;;;;57.53;21.70;;;;;;;4.39;100.00;103128.78;5092710;28;20036;-54
2022/01/11 08:39:15;;;;;;;51.67;20.50;;;;;;;4.92;100.00;103134.22;5092099;28;20067;-53
2022/01/11 08:41:41;;;;;;;42.78;18.25;;;;;;;4.65;100.00;103132.41;5075074;28;20035;-56
2022/01/11 08:44:11;;;;;;;53.97;20.27;;;;;;;4.91;100.00;103127.22;5091895;28;20109;-55
2022/01/11 08:46:40;;;;;;;45.17;17.17;;;;;;;4.56;100.00;103135.66;5092232;28;20127;-54
2022/01/11 08:49:13;;;;;;;47.40;19.30;;;;;;;4.98;100.00;103128.50;5092628;28;20475;-56
2022/01/11 08:51:40;;;;;;;45.40;19.58;;;;;;;4.84;100.00;103126.75;5075324;28;20085;-56
2022/01/11 08:54:09;;;;;;;44.13;17.08;;;;;;;4.84;100.00;103134.72;5092712;28;20456;-53
2022/01/11 08:56:35;;;;;;;48.90;19.00;;;;;;;4.82;100.00;103126.00;5091963;28;20047;-55
2022/01/11 08:59:00;;;;;;;44.28;19.30;;;;;;;4.64;100.00;103125.41;5091834;28;20032;-55
2022/01/11 09:01:31;;;;;;;45.15;18.45;;;;;;;4.84;100.00;103125.91;5091633;28;20036;-52
2022/01/11 09:03:59;;;;;;;41.20;19.17;;;;;;;4.95;100.00;103130.50;5076398;28;20063;-55
2022/01/11 09:06:25;;;;;;;42.40;18.58;;;;;;;4.93;100.00;103130.59;5093294;28;20044;-55
2022/01/11 09:08:52;;;;;;;43.40;18.77;;;;;;;4.89;100.00;103139.72;5091757;28;20058;-56
2022/01/11 09:11:18;;;;;;;43.28;18.27;;;;;;;5.12;100.00;103126.75;5092067;28;20131;-54
2022/01/11 09:13:45;;;;;;;50.65;18.60;;;;;;;5.07;100.00;103134.13;5092683;28;20605;-55
2022/01/11 09:16:11;;;;;;;36.30;15.15;;;;;;;5.16;100.00;103141.50;5091978;28;20120;-55
2022/01/11 09:18:38;;;;;;;48.55;18.83;;;;;;;5.03;100.00;103147.59;5093235;28;20468;-54
2022/01/11 09:21:05;;;;;;;49.28;19.33;;;;;;;4.98;100.00;103154.19;5095489;28;20042;-55
2022/01/11 09:23:32;;;;;;;44.40;16.95;;;;;;;5.39;100.00;103155.84;5096121;28;20036;-52
2022/01/11 09:25:58;;;;;;;49.53;19.00;;;;;;;5.39;100.00;103152.34;5097273;28;20380;-52
2022/01/11 09:28:24;;;;;;;;;;;;;;;5.42;100.00;103152.16;5079589;28;20092;-52
2022/01/11 09:30:51;;;;;;;40.77;16.17;;;;;;;5.14;100.00;103154.00;5096269;28;20348;-55
2022/01/11 09:33:17;;;;;;;39.30;16.42;;;;;;;5.22;100.00;103146.38;5079288;28;20365;-52
2022/01/11 09:35:44;;;;;;;43.58;16.90;;;;;;;5.51;100.00;103159.47;5095650;28;20492;-51
2022/01/11 09:38:18;;;;;;;39.78;15.73;;;;;;;5.27;100.00;103154.03;5080593;28;20501;-51
2022/01/11 09:40:50;;;;;;;38.88;17.73;;;;;;;5.39;100.00;103153.19;5095482;28;20035;-54
2022/01/11 09:43:19;;;;;;;41.45;16.42;;;;;;;5.89;100.00;103160.47;5095608;28;20376;-55
2022/01/11 09:45:45;;;;;;;42.47;15.05;;;;;;;5.81;100.00;103163.66;5095668;28;20036;-55
2022/01/11 09:48:10;;;;;;;33.58;14.27;;;;;;;5.68;100.00;103162.78;5095428;28;20047;-55
2022/01/11 09:50:40;;;;;;;43.33;16.95;;;;;;;5.79;100.00;103160.25;5079731;28;20051;-53
2022/01/11 09:53:08;;;;;;;38.88;15.85;;;;;;;5.81;100.00;103168.09;5096248;28;20066;-52
2022/01/11 09:55:38;;;;;;;40.63;16.35;;;;;;;5.88;100.00;103170.22;5095281;28;20035;-52
2022/01/11 09:58:05;;;;;;;41.42;15.35;;;;;;;5.93;100.00;103169.03;5095487;28;20032;-51
2022/01/11 10:00:50;;;;;;;41.83;15.93;;;;;;;5.86;100.00;103160.66;5096956;28;20040;-55
2022/01/11 10:04:06;;;;;;;33.63;15.50;;;;;;;6.00;100.00;103162.38;5082723;28;20051;-52
2022/01/11 10:07:09;;;;;;;41.92;18.83;;;;;;;5.70;100.00;103155.56;5033716;28;20483;-52
2022/01/11 10:09:44;;;;;;;34.88;14.93;;;;;;;5.77;100.00;103167.47;5079694;28;20087;-52
2022/01/11 10:12:12;;;;;;;31.30;14.00;;;;;;;5.45;100.00;103162.53;5095036;28;20040;-52
2022/01/11 10:14:44;;;;;;;39.08;16.88;;;;;;;5.93;100.00;103156.63;5078913;28;20036;-55
2022/01/11 10:17:22;;;;;;;39.33;16.05;;;;;;;5.98;100.00;103161.59;5095829;28;20046;-52
2022/01/11 10:20:09;;;;;;;38.45;17.63;;;;;;;6.00;100.00;103159.72;5095886;28;20361;-54
2022/01/11 10:22:56;;;;;;;39.90;15.82;;;;;;;6.07;100.00;103160.13;5095253;28;20425;-51
2022/01/11 10:25:24;;;;;;;33.72;14.68;;;;;;;6.06;100.00;103154.00;5095811;28;20460;-55
2022/01/11 10:28:05;;;;;;;35.58;15.30;;;;;;;5.79;100.00;103156.72;5078356;28;20122;-55
2022/01/11 10:30:35;;;;;;;33.70;16.50;;;;;;;6.02;100.00;103148.03;5094973;28;20044;-54
2022/01/11 10:33:08;;;;;;;37.53;15.30;;;;;;;6.52;100.00;103146.34;5078955;28;20097;-55
2022/01/11 10:35:44;;;;;;;35.35;14.75;;;;;;;6.03;100.00;103156.88;5094767;28;20085;-55
2022/01/11 10:38:30;;;;;;;35.38;15.98;;;;;;;6.31;100.00;103161.03;5095651;28;20040;-55
2022/01/11 10:41:10;;;;;;;38.15;13.98;;;;;;;6.31;100.00;103160.22;5095287;28;20380;-54
2022/01/11 10:43:44;;;;;;;37.70;14.52;;;;;;;6.51;100.00;103166.75;5095441;28;20043;-54
2022/01/11 10:46:13;;;;;;;37.72;15.05;;;;;;;6.89;100.00;103171.06;5094486;28;20055;-55
2022/01/11 10:48:43;;;;;;;33.05;13.80;;;;;;;7.06;100.00;103176.09;5094444;28;20028;-51
2022/01/11 10:51:13;;;;;;;33.60;15.75;;;;;;;7.17;100.00;103168.19;5094613;28;20439;-53
2022/01/11 10:53:41;;;;;;;32.90;14.15;;;;;;;6.94;100.00;103172.53;5094982;28;20039;-52
2022/01/11 10:56:09;;;;;;;32.10;14.50;;;;;;;8.28;100.00;103173.88;5094110;28;20036;-55
2022/01/11 10:59:10;;;;;;;31.45;13.55;;;;;;;9.01;100.00;103173.38;5094584;28;20036;-55
2022/01/11 11:01:38;;;;;;;29.85;13.52;;;;;;;9.12;100.00;103170.69;5094279;28;20105;-54
2022/01/11 11:04:05;;;;;;;32.60;12.32;;;;;;;8.55;100.00;103175.34;5093984;28;20109;-54
2022/01/11 11:06:30;;;;;;;31.70;13.00;;;;;;;8.72;100.00;103174.81;5094640;28;20134;-54
2022/01/11 11:08:56;;;;;;;31.07;13.40;;;;;;;8.43;100.00;103169.16;5093875;28;20441;-52
2022/01/11 11:11:26;;;;;;;33.05;14.18;;;;;;;8.72;100.00;103172.13;5094390;28;20447;-53
2022/01/11 11:14:15;;;;;;;27.67;13.18;;;;;;;8.47;100.00;103158.09;5089193;28;20052;-53
2022/01/11 11:16:48;;;;;;;26.98;12.13;;;;;;;8.26;100.00;103154.50;5093995;28;20052;-52